Time;durP1;ratioP1;P1;durP2;ratioP2;P2;SDS_P1;SDS_P2;PMS_P1;PMS_P2;Temp;Humidity;BMP_temperature;BMP_pressure;BME280_temperature;BME280_humidity;BME280_pressure;Samples;Min_cycle;Max_cycle;Signal;HPM_P1;HPM_P2
2022/03/19 00:01:09;;;;;;;11.63;2.50;;;5.20;99.90;;;;;;4946054;28;20050;-74
2022/03/19 00:03:35;;;;;;;13.60;3.33;;;5.10;99.90;;;;;;4975644;28;20553;-75
2022/03/19 00:06:00;;;;;;;11.32;2.97;;;5.00;99.90;;;;;;4973060;28;20130;-75
2022/03/19 00:08:27;;;;;;;9.85;2.85;;;5.00;99.90;;;;;;4973098;28;20038;-74
2022/03/19 00:10:52;;;;;;;11.07;3.15;;;4.90;99.90;;;;;;4964222;28;20035;-74
2022/03/19 00:13:18;;;;;;;10.88;3.40;;;4.90;99.90;;;;;;4953453;28;20046;-75
2022/03/19 00:15:44;;;;;;;13.05;3.08;;;4.90;99.90;;;;;;4985966;28;20051;-75
2022/03/19 00:18:09;;;;;;;10.50;3.00;;;4.80;99.90;;;;;;4969117;28;20062;-75
2022/03/19 00:20:37;;;;;;;10.65;3.60;;;4.80;99.90;;;;;;4969944;28;20047;-75
2022/03/19 00:23:05;;;;;;;16.80;4.07;;;4.80;99.90;;;;;;4937449;29;20141;-75
2022/03/19 00:25:30;;;;;;;18.90;3.90;;;4.70;99.90;;;;;;4971767;28;20086;-75
2022/03/19 00:27:56;;;;;;;10.82;3.42;;;4.70;99.90;;;;;;4975944;28;20043;-75
2022/03/19 00:30:22;;;;;;;16.00;3.78;;;4.60;99.90;;;;;;4972510;28;20513;-75
2022/03/19 00:32:47;;;;;;;11.98;3.35;;;4.60;99.90;;;;;;4972319;28;20553;-75
2022/03/19 00:35:13;;;;;;;8.27;2.72;;;4.50;99.90;;;;;;4938324;29;20138;-74
2022/03/19 00:37:50;;;;;;;10.18;3.47;;;4.50;99.90;;;;;;4969472;28;20576;-74
2022/03/19 00:40:17;;;;;;;11.88;2.88;;;4.50;99.90;;;;;;4983236;28;20046;-76
2022/03/19 00:42:43;;;;;;;10.48;2.78;;;4.40;99.90;;;;;;4956197;28;20046;-74
2022/03/19 00:45:10;;;;;;;10.02;3.15;;;4.40;99.90;;;;;;4956433;28;20042;-74
2022/03/19 00:47:36;;;;;;;10.05;2.72;;;4.30;99.90;;;;;;4956770;28;20050;-77
2022/03/19 00:50:03;;;;;;;10.93;3.47;;;4.30;99.90;;;;;;4971790;28;20043;-74
2022/03/19 00:52:28;;;;;;;10.07;2.67;;;4.20;99.90;;;;;;4953150;29;20073;-74
2022/03/19 00:54:54;;;;;;;12.77;3.45;;;4.20;99.90;;;;;;4981554;28;20513;-76
2022/03/19 00:57:19;;;;;;;14.95;3.05;;;4.20;99.90;;;;;;4939446;28;20043;-75
2022/03/19 00:59:45;;;;;;;10.68;3.05;;;4.20;99.90;;;;;;4953148;29;20074;-75
2022/03/19 01:02:11;;;;;;;10.85;4.18;;;4.20;99.90;;;;;;4971449;28;20042;-75
2022/03/19 01:04:36;;;;;;;11.93;2.53;;;4.10;99.90;;;;;;4987201;28;20405;-75
2022/03/19 01:07:02;;;;;;;12.25;2.90;;;4.10;99.90;;;;;;4959388;28;20611;-75
2022/03/19 01:09:28;;;;;;;8.77;2.90;;;4.00;99.90;;;;;;4985055;28;20047;-75
2022/03/19 01:11:53;;;;;;;12.45;4.05;;;4.00;99.90;;;;;;4982984;28;20061;-75
2022/03/19 01:14:19;;;;;;;10.35;2.80;;;4.00;99.90;;;;;;4972237;28;20051;-75
2022/03/19 01:16:45;;;;;;;13.82;3.40;;;4.00;99.90;;;;;;4971978;28;20468;-76
2022/03/19 01:19:10;;;;;;;13.27;3.20;;;4.00;99.90;;;;;;4972672;28;20085;-76
2022/03/19 01:21:36;;;;;;;10.27;3.85;;;4.00;99.90;;;;;;4994421;28;20028;-75
2022/03/19 01:24:03;;;;;;;8.95;2.85;;;4.00;99.90;;;;;;4969998;28;20117;-76
2022/03/19 01:26:29;;;;;;;10.68;3.65;;;3.90;99.90;;;;;;4953529;29;20043;-76
2022/03/19 01:28:54;;;;;;;8.88;3.30;;;4.00;99.90;;;;;;4943006;28;20121;-76
2022/03/19 01:31:25;;;;;;;11.88;3.30;;;3.90;99.90;;;;;;4963372;28;20039;-76
2022/03/19 01:33:54;;;;;;;15.25;3.15;;;3.90;99.90;;;;;;4968837;28;20542;-75
2022/03/19 01:36:20;;;;;;;9.85;2.95;;;3.90;99.90;;;;;;4968574;28;20043;-75
2022/03/19 01:38:46;;;;;;;13.20;2.80;;;3.90;99.90;;;;;;4968554;28;20410;-75
2022/03/19 01:41:12;;;;;;;12.82;3.03;;;3.90;99.90;;;;;;4976632;28;20133;-75
2022/03/19 01:43:38;;;;;;;10.05;3.53;;;3.90;99.90;;;;;;4971808;28;20042;-75
2022/03/19 01:46:05;;;;;;;12.68;3.55;;;3.90;99.90;;;;;;4954677;28;20486;-75
2022/03/19 01:48:31;;;;;;;20.27;5.30;;;3.90;99.90;;;;;;4988035;28;20050;-75
2022/03/19 01:50:56;;;;;;;10.45;3.20;;;3.90;99.90;;;;;;4956240;28;20034;-75
2022/03/19 01:53:22;;;;;;;13.77;3.50;;;3.90;99.90;;;;;;4955817;28;20125;-75
2022/03/19 01:55:48;;;;;;;10.65;3.28;;;3.80;99.90;;;;;;4972188;28;20080;-75
2022/03/19 01:58:14;;;;;;;12.35;4.00;;;3.80;99.90;;;;;;4972017;28;20391;-75
2022/03/19 02:00:40;;;;;;;17.10;4.32;;;3.80;99.90;;;;;;4953731;28;20050;-75
2022/03/19 02:03:06;;;;;;;13.30;3.50;;;3.80;99.90;;;;;;4968313;28;20047;-75
2022/03/19 02:05:32;;;;;;;10.38;3.38;;;3.80;99.90;;;;;;4968309;28;20050;-75
2022/03/19 02:07:57;;;;;;;10.65;3.05;;;3.70;99.90;;;;;;4968705;28;20039;-75
2022/03/19 02:10:24;;;;;;;15.90;3.92;;;3.70;99.90;;;;;;4955689;28;20051;-75
2022/03/19 02:12:51;;;;;;;12.85;3.63;;;3.70;99.90;;;;;;4986127;28;20046;-75
2022/03/19 02:15:17;;;;;;;14.40;4.10;;;3.70;99.90;;;;;;4971279;28;20449;-75
2022/03/19 02:17:43;;;;;;;12.70;3.53;;;3.60;99.90;;;;;;4987851;28;20062;-75
2022/03/19 02:20:10;;;;;;;9.80;3.30;;;3.60;99.90;;;;;;4973183;28;20051;-75
2022/03/19 02:22:36;;;;;;;9.20;3.35;;;3.60;99.90;;;;;;4967206;28;20042;-76
2022/03/19 02:27:46;;;;;;;13.10;3.70;;;3.60;99.90;;;;;;4971854;28;20533;-76
2022/03/19 02:30:15;;;;;;;11.48;3.45;;;3.50;99.90;;;;;;4971587;28;20129;-75
2022/03/19 02:32:45;;;;;;;15.52;3.78;;;3.50;99.90;;;;;;4971271;28;20047;-75
2022/03/19 02:35:11;;;;;;;12.38;3.67;;;3.50;99.90;;;;;;4952098;29;20055;-76
2022/03/19 02:37:38;;;;;;;9.23;3.35;;;3.50;99.90;;;;;;4952090;28;20043;-75
2022/03/19 02:40:05;;;;;;;10.27;3.50;;;3.50;99.90;;;;;;4966994;28;20043;-75
2022/03/19 02:42:31;;;;;;;14.02;3.95;;;3.50;99.90;;;;;;4961505;28;20058;-75
2022/03/19 02:44:56;;;;;;;14.77;3.83;;;3.50;99.90;;;;;;4939382;28;20035;-75
2022/03/19 02:47:22;;;;;;;13.40;4.07;;;3.50;99.90;;;;;;4990793;28;20481;-75
2022/03/19 02:49:47;;;;;;;10.13;3.72;;;3.50;99.90;;;;;;4974284;28;20043;-75
2022/03/19 02:52:13;;;;;;;11.05;3.53;;;3.50;99.90;;;;;;4964071;28;20087;-75
2022/03/19 02:54:39;;;;;;;14.18;3.72;;;3.50;99.90;;;;;;4955197;29;20054;-75
2022/03/19 02:57:05;;;;;;;11.52;3.83;;;3.50;99.90;;;;;;4955518;29;20062;-75
2022/03/19 02:59:32;;;;;;;12.93;4.15;;;3.50;99.90;;;;;;4958322;28;20053;-75
2022/03/19 03:02:05;;;;;;;15.38;4.10;;;3.50;99.90;;;;;;4965403;28;20039;-75
2022/03/19 03:04:31;;;;;;;10.70;3.90;;;3.50;99.90;;;;;;4971381;28;20148;-75
2022/03/19 03:07:02;;;;;;;17.52;4.43;;;3.50;99.90;;;;;;4940661;29;20151;-75
2022/03/19 03:09:29;;;;;;;10.93;4.28;;;3.50;99.90;;;;;;4955690;28;20039;-75
2022/03/19 03:11:55;;;;;;;8.40;3.45;;;3.60;99.90;;;;;;4972310;28;20451;-75
2022/03/19 03:14:21;;;;;;;11.73;4.00;;;3.60;99.90;;;;;;4964356;28;20498;-75
2022/03/19 03:16:52;;;;;;;15.10;4.80;;;3.60;99.90;;;;;;4971954;28;20058;-75
2022/03/19 03:19:19;;;;;;;9.00;3.90;;;3.60;99.90;;;;;;4971999;28;20046;-76
2022/03/19 03:21:45;;;;;;;14.93;5.00;;;3.70;99.90;;;;;;4942804;29;20043;-75
2022/03/19 03:24:12;;;;;;;15.05;4.97;;;3.70;99.90;;;;;;4955257;28;20185;-75
2022/03/19 03:26:38;;;;;;;14.00;4.53;;;3.70;99.90;;;;;;4955140;29;20054;-75
2022/03/19 03:29:05;;;;;;;12.15;4.68;;;3.70;99.90;;;;;;4955366;29;20047;-75
2022/03/19 03:31:31;;;;;;;10.80;4.70;;;3.70;99.90;;;;;;4971758;28;20490;-75
2022/03/19 03:33:57;;;;;;;12.77;3.83;;;3.70;99.90;;;;;;4954863;28;20047;-75
2022/03/19 03:36:23;;;;;;;12.35;4.20;;;3.70;99.90;;;;;;4972183;28;20054;-76
2022/03/19 03:38:49;;;;;;;12.68;4.53;;;3.70;99.90;;;;;;4955430;28;20046;-76
2022/03/19 03:41:15;;;;;;;14.48;4.63;;;3.60;99.90;;;;;;4956033;28;20098;-74
2022/03/19 03:43:41;;;;;;;10.55;4.63;;;3.70;99.90;;;;;;4974464;28;20074;-75
2022/03/19 03:46:07;;;;;;;12.45;4.22;;;3.60;99.90;;;;;;4990562;28;20406;-75
2022/03/19 03:48:36;;;;;;;14.07;5.78;;;3.70;99.90;;;;;;4974265;28;20034;-75
2022/03/19 03:51:03;;;;;;;15.75;4.55;;;3.70;99.90;;;;;;4974450;28;20125;-75
2022/03/19 03:53:29;;;;;;;10.45;4.38;;;3.70;99.90;;;;;;4955508;28;20047;-75
2022/03/19 03:55:55;;;;;;;14.93;5.43;;;3.70;99.90;;;;;;4955149;28;20047;-75
2022/03/19 03:58:22;;;;;;;12.13;4.45;;;3.70;99.90;;;;;;4939390;29;20383;-75
2022/03/19 04:00:50;;;;;;;11.93;4.90;;;3.70;99.90;;;;;;4958050;28;20051;-76
2022/03/19 04:03:16;;;;;;;16.90;5.75;;;3.70;99.90;;;;;;4977322;28;20038;-75
2022/03/19 04:05:42;;;;;;;12.63;5.03;;;3.80;99.90;;;;;;4963172;28;20070;-75
2022/03/19 04:08:07;;;;;;;11.30;4.93;;;3.80;99.90;;;;;;4938208;29;20039;-76
2022/03/19 04:10:33;;;;;;;11.85;4.85;;;3.70;99.90;;;;;;4971470;28;20046;-76
2022/03/19 04:12:59;;;;;;;16.30;5.93;;;3.70;99.90;;;;;;4969209;28;20030;-76
2022/03/19 04:15:25;;;;;;;11.88;4.95;;;3.70;99.90;;;;;;4970182;28;20043;-76
2022/03/19 04:17:51;;;;;;;14.60;5.13;;;3.70;99.90;;;;;;4970456;28;20102;-76
2022/03/19 04:20:16;;;;;;;15.18;5.43;;;3.60;99.90;;;;;;4970642;28;20054;-76
2022/03/19 04:22:45;;;;;;;16.50;5.53;;;3.60;99.90;;;;;;4965050;28;20383;-75
2022/03/19 04:25:17;;;;;;;11.77;5.07;;;3.60;99.90;;;;;;4969659;28;20047;-76
2022/03/19 04:27:44;;;;;;;14.25;5.75;;;3.60;99.90;;;;;;4969735;28;20399;-75
2022/03/19 04:30:14;;;;;;;12.45;5.72;;;3.60;99.90;;;;;;4970223;28;20134;-75
2022/03/19 04:32:45;;;;;;;11.98;5.18;;;3.60;99.90;;;;;;4965270;28;20039;-75
2022/03/19 04:38:02;;;;;;;12.10;5.65;;;3.60;99.90;;;;;;4972920;28;20061;-76
2022/03/19 04:40:29;;;;;;;11.27;4.93;;;3.60;99.90;;;;;;4989128;28;20090;-76
2022/03/19 04:42:55;;;;;;;17.70;5.57;;;3.60;99.90;;;;;;4969679;28;20482;-75
2022/03/19 04:45:20;;;;;;;17.05;5.43;;;3.60;99.90;;;;;;4953544;29;20066;-76
2022/03/19 04:47:46;;;;;;;11.35;5.03;;;3.60;99.90;;;;;;4937490;29;20048;-75
2022/03/19 04:50:12;;;;;;;9.93;5.30;;;3.60;99.90;;;;;;4937589;29;20133;-76
2022/03/19 04:52:38;;;;;;;10.75;5.15;;;3.60;99.90;;;;;;4958336;28;20031;-75
2022/03/19 04:55:06;;;;;;;12.02;5.22;;;3.60;99.90;;;;;;4972198;28;20117;-75
2022/03/19 04:57:32;;;;;;;13.77;6.00;;;3.60;99.90;;;;;;4988612;28;20046;-75
2022/03/19 04:59:58;;;;;;;13.52;5.72;;;3.60;99.90;;;;;;4988049;28;20047;-76
2022/03/19 05:02:24;;;;;;;11.98;5.25;;;3.60;99.90;;;;;;4970559;28;20510;-76
2022/03/19 05:04:54;;;;;;;11.30;5.30;;;3.60;99.90;;;;;;4958005;28;20317;-75
2022/03/19 05:07:21;;;;;;;13.30;5.68;;;3.60;99.90;;;;;;4955327;28;20045;-75
2022/03/19 05:12:37;;;;;;;14.77;5.07;;;3.60;99.90;;;;;;4986614;28;20398;-75
2022/03/19 05:15:03;;;;;;;16.45;5.75;;;3.60;99.90;;;;;;4971897;28;20050;-75
2022/03/19 05:17:29;;;;;;;16.10;5.38;;;3.50;99.90;;;;;;4956217;28;20394;-75
2022/03/19 05:19:55;;;;;;;15.90;5.95;;;3.50;99.90;;;;;;4971696;28;20130;-75
2022/03/19 05:22:21;;;;;;;11.48;5.07;;;3.50;99.90;;;;;;4952778;29;20047;-76
2022/03/19 05:24:47;;;;;;;15.30;6.15;;;3.50;99.90;;;;;;4952225;29;20043;-76
2022/03/19 05:27:12;;;;;;;12.00;4.97;;;3.40;99.90;;;;;;4952504;28;20087;-75
2022/03/19 05:29:39;;;;;;;10.20;5.07;;;3.40;99.90;;;;;;4963471;28;20047;-75
2022/03/19 05:32:05;;;;;;;13.93;4.90;;;3.40;99.90;;;;;;4969142;28;20560;-75
2022/03/19 05:34:31;;;;;;;14.18;5.57;;;3.30;99.90;;;;;;4945442;29;20094;-75
2022/03/19 05:37:02;;;;;;;14.93;5.50;;;3.30;99.90;;;;;;4969140;28;20035;-76
2022/03/19 05:39:28;;;;;;;14.25;5.60;;;3.30;99.90;;;;;;4955048;28;20497;-75
2022/03/19 05:41:54;;;;;;;10.82;4.63;;;3.20;99.90;;;;;;4971222;28;20042;-75
2022/03/19 05:44:20;;;;;;;14.35;4.70;;;3.20;99.90;;;;;;4971650;28;20046;-76
2022/03/19 05:46:47;;;;;;;14.73;5.07;;;3.20;99.90;;;;;;4961641;28;20486;-75
2022/03/19 05:49:12;;;;;;;11.82;6.20;;;3.20;99.90;;;;;;4964248;28;20043;-75
2022/03/19 05:51:38;;;;;;;14.07;5.18;;;3.20;99.90;;;;;;4969078;28;20043;-75
2022/03/19 05:54:04;;;;;;;12.48;4.85;;;3.20;99.90;;;;;;4955580;28;20039;-75
2022/03/19 05:56:30;;;;;;;9.80;4.70;;;3.10;99.90;;;;;;4971207;28;20035;-76
2022/03/19 05:58:56;;;;;;;12.43;5.25;;;3.10;99.90;;;;;;4982424;28;20053;-76
2022/03/19 06:01:28;;;;;;;11.00;4.70;;;3.00;99.90;;;;;;4975235;28;20382;-75
2022/03/19 06:03:56;;;;;;;11.80;4.72;;;3.00;99.90;;;;;;4970410;28;20113;-75
2022/03/19 06:06:22;;;;;;;9.75;4.28;;;3.00;99.90;;;;;;4952237;29;20051;-74
2022/03/19 06:08:48;;;;;;;10.70;4.53;;;3.00;99.90;;;;;;4936988;29;20043;-74
2022/03/19 06:11:13;;;;;;;9.30;4.13;;;3.10;99.90;;;;;;4952096;29;20077;-74
2022/03/19 06:13:39;;;;;;;13.52;4.65;;;3.10;99.90;;;;;;4967302;28;20043;-74
2022/03/19 06:16:05;;;;;;;10.85;4.45;;;3.10;99.90;;;;;;4983116;28;20042;-74
2022/03/19 06:18:31;;;;;;;11.45;4.38;;;3.10;99.90;;;;;;4991439;28;20053;-75
2022/03/19 06:20:57;;;;;;;10.55;4.65;;;3.10;99.90;;;;;;4958909;28;20109;-75
2022/03/19 06:23:23;;;;;;;10.57;3.92;;;3.10;99.90;;;;;;4955148;29;20047;-74
2022/03/19 06:25:49;;;;;;;12.25;4.25;;;3.10;99.90;;;;;;4955579;29;20089;-75
2022/03/19 06:28:15;;;;;;;14.77;4.30;;;3.10;99.90;;;;;;4957112;28;20050;-75
2022/03/19 06:30:41;;;;;;;11.63;3.75;;;3.30;99.90;;;;;;4974196;28;20500;-75
2022/03/19 06:33:07;;;;;;;10.35;3.97;;;3.30;99.90;;;;;;4981316;28;20039;-75
2022/03/19 06:38:18;;;;;;;15.00;4.10;;;3.40;99.90;;;;;;4955679;28;20348;-75
2022/03/19 06:40:44;;;;;;;12.10;3.97;;;3.40;99.90;;;;;;4977657;28;20086;-74
2022/03/19 06:43:09;;;;;;;9.98;3.75;;;3.50;99.90;;;;;;4967465;28;20058;-75
2022/03/19 06:45:35;;;;;;;12.13;3.65;;;3.50;99.90;;;;;;4974771;28;20406;-74
2022/03/19 06:48:01;;;;;;;9.32;3.47;;;3.60;99.90;;;;;;4974409;28;20513;-75
2022/03/19 06:50:26;;;;;;;7.75;3.08;;;3.80;99.90;;;;;;4974687;28;20456;-74
2022/03/19 06:52:52;;;;;;;12.65;3.72;;;3.80;99.90;;;;;;4973081;28;20031;-76
2022/03/19 06:55:18;;;;;;;8.32;3.63;;;3.90;99.90;;;;;;4973647;28;20516;-76
2022/03/19 06:57:43;;;;;;;11.98;3.83;;;4.00;99.90;;;;;;4955856;28;20043;-76
2022/03/19 07:00:09;;;;;;;15.45;4.22;;;4.10;99.90;;;;;;4955825;29;20074;-76
2022/03/19 07:02:49;;;;;;;9.90;3.55;;;4.20;99.90;;;;;;4957862;28;20043;-76
2022/03/19 07:05:28;;;;;;;10.40;3.58;;;4.40;99.90;;;;;;4972624;28;20039;-76
2022/03/19 07:07:56;;;;;;;6.97;3.10;;;4.40;99.90;;;;;;4971891;28;20121;-76
2022/03/19 07:10:21;;;;;;;10.90;3.55;;;4.60;99.90;;;;;;4972250;28;20054;-76
2022/03/19 07:12:49;;;;;;;9.85;3.80;;;4.60;99.90;;;;;;4956513;28;20046;-76
2022/03/19 07:15:17;;;;;;;6.15;2.92;;;4.80;99.90;;;;;;4953626;29;20039;-77
2022/03/19 07:17:43;;;;;;;11.10;3.75;;;4.80;99.90;;;;;;4955611;28;20054;-75
2022/03/19 07:20:11;;;;;;;8.63;3.20;;;5.00;99.90;;;;;;4971206;28;20122;-75
2022/03/19 07:22:58;;;;;;;10.65;3.35;;;5.10;99.90;;;;;;4952433;28;20378;-76
2022/03/19 07:25:28;;;;;;;13.93;4.40;;;5.20;99.90;;;;;;4969432;28;20043;-76
2022/03/19 07:27:57;;;;;;;8.98;3.90;;;5.30;99.90;;;;;;4964406;28;20062;-76
2022/03/19 07:30:23;;;;;;;11.95;3.60;;;5.40;99.90;;;;;;4963680;28;20031;-76
2022/03/19 07:32:49;;;;;;;8.23;3.42;;;5.40;99.90;;;;;;4958203;28;20105;-76
2022/03/19 07:35:15;;;;;;;13.35;4.30;;;5.60;99.90;;;;;;4956937;28;20047;-76
2022/03/19 07:37:45;;;;;;;9.38;3.83;;;5.60;99.90;;;;;;4990299;28;20037;-76
2022/03/19 07:40:12;;;;;;;11.45;6.05;;;5.60;99.90;;;;;;4990231;28;20043;-76
2022/03/19 07:42:38;;;;;;;10.85;4.93;;;5.70;99.90;;;;;;4958073;28;20089;-76
2022/03/19 07:45:06;;;;;;;13.63;4.22;;;5.80;99.90;;;;;;4956947;28;20038;-76
2022/03/19 07:47:32;;;;;;;9.95;4.07;;;5.90;99.90;;;;;;4990215;28;20125;-76
2022/03/19 07:49:59;;;;;;;6.88;3.17;;;6.00;99.90;;;;;;4989483;28;20050;-76
2022/03/19 07:52:25;;;;;;;13.60;3.88;;;6.10;99.90;;;;;;4990159;28;20070;-76
2022/03/19 07:54:55;;;;;;;12.10;4.00;;;6.30;99.90;;;;;;4957781;28;20043;-77
2022/03/19 07:57:24;;;;;;;16.52;4.68;;;6.30;99.90;;;;;;4939949;28;20047;-77
2022/03/19 07:59:50;;;;;;;20.65;4.65;;;6.40;99.90;;;;;;4970038;28;20053;-76
2022/03/19 08:02:20;;;;;;;8.85;3.10;;;6.50;99.90;;;;;;4970135;28;20043;-76
2022/03/19 08:04:45;;;;;;;9.77;3.80;;;6.60;99.90;;;;;;4958608;28;20105;-76
2022/03/19 08:07:11;;;;;;;7.18;2.85;;;6.70;99.90;;;;;;4958650;28;20445;-77
2022/03/19 08:09:38;;;;;;;10.68;2.97;;;6.70;99.90;;;;;;4971158;28;20069;-76
2022/03/19 08:12:06;;;;;;;13.55;3.55;;;6.80;99.90;;;;;;4963427;28;20035;-77
2022/03/19 08:14:32;;;;;;;9.10;3.63;;;6.90;99.90;;;;;;4981702;28;20046;-75
2022/03/19 08:16:58;;;;;;;8.38;3.17;;;7.00;99.90;;;;;;4963807;28;20490;-77
2022/03/19 08:19:28;;;;;;;11.43;3.60;;;7.10;99.90;;;;;;4960243;28;20043;-77
2022/03/19 08:21:54;;;;;;;10.23;3.13;;;7.10;99.90;;;;;;4970515;28;20564;-76
2022/03/19 08:24:23;;;;;;;9.30;3.65;;;7.20;99.90;;;;;;4970946;28;20043;-76
2022/03/19 08:26:52;;;;;;;11.55;3.20;;;7.30;99.90;;;;;;4971012;28;20051;-77
2022/03/19 08:29:18;;;;;;;10.60;3.25;;;7.30;99.90;;;;;;4970488;28;20090;-77
2022/03/19 08:31:44;;;;;;;11.77;3.67;;;7.40;99.90;;;;;;4971317;28;20038;-76
2022/03/19 08:34:12;;;;;;;8.63;2.60;;;7.50;99.90;;;;;;4972570;28;20047;-76
2022/03/19 08:36:38;;;;;;;8.10;2.95;;;7.50;99.90;;;;;;4989042;28;20396;-76
2022/03/19 08:41:47;;;;;;;13.43;3.72;;;7.60;99.90;;;;;;4972556;28;20073;-77
2022/03/19 08:44:16;;;;;;;9.38;3.60;;;7.70;99.90;;;;;;4977907;28;20043;-76
2022/03/19 08:46:41;;;;;;;11.23;2.97;;;7.80;99.90;;;;;;4989394;28;20050;-76
2022/03/19 08:49:07;;;;;;;10.20;2.75;;;7.80;99.90;;;;;;4959661;28;20050;-76
2022/03/19 08:51:41;;;;;;;9.27;3.00;;;7.90;99.90;;;;;;4960852;28;20154;-76
2022/03/19 08:54:09;;;;;;;8.05;3.22;;;8.10;99.90;;;;;;4955719;28;20094;-76
2022/03/19 08:56:36;;;;;;;10.00;2.83;;;8.10;99.90;;;;;;4960158;28;20065;-75
2022/03/19 08:59:03;;;;;;;13.45;3.90;;;8.10;99.90;;;;;;4973380;28;20051;-75
2022/03/19 09:01:29;;;;;;;10.45;3.17;;;8.30;99.90;;;;;;4971214;28;20618;-75
2022/03/19 09:03:55;;;;;;;8.35;2.90;;;8.30;99.90;;;;;;4966836;28;20142;-75
2022/03/19 09:06:21;;;;;;;18.45;3.53;;;8.40;99.90;;;;;;4972310;28;20093;-75
2022/03/19 09:08:49;;;;;;;10.05;2.80;;;8.60;99.90;;;;;;4955791;28;20069;-75
2022/03/19 09:11:18;;;;;;;8.40;2.95;;;9.20;99.80;;;;;;4955064;28;20090;-75
2022/03/19 09:13:47;;;;;;;7.97;3.08;;;9.80;97.20;;;;;;4953696;28;20094;-75
2022/03/19 09:16:12;;;;;;;12.52;2.78;;;10.40;93.70;;;;;;4948920;28;20516;-75
2022/03/19 09:18:39;;;;;;;9.40;2.90;;;10.80;91.80;;;;;;4967632;28;20034;-75
2022/03/19 09:21:05;;;;;;;6.68;2.10;;;11.20;90.90;;;;;;4967620;28;20045;-75
2022/03/19 09:23:30;;;;;;;8.93;2.75;;;11.60;84.70;;;;;;4972194;28;20047;-75
2022/03/19 09:25:59;;;;;;;7.25;2.30;;;12.00;78.50;;;;;;4987599;28;20043;-77
2022/03/19 09:28:28;;;;;;;10.10;2.60;;;12.20;78.70;;;;;;4991791;28;20497;-76
2022/03/19 09:31:10;;;;;;;8.55;2.22;;;12.50;78.20;;;;;;4956138;28;20034;-77
2022/03/19 09:33:45;;;;;;;7.38;2.03;;;12.90;69.90;;;;;;4963127;28;20042;-79
2022/03/19 09:36:33;;;;;;;5.82;2.20;;;13.20;65.50;;;;;;4971898;28;20510;-79
2022/03/19 09:38:58;;;;;;;6.60;2.20;;;13.40;65.70;;;;;;4970461;28;20043;-79
2022/03/19 09:41:27;;;;;;;8.77;2.33;;;13.50;65.90;;;;;;4974836;28;20572;-79
2022/03/19 09:44:02;;;;;;;8.32;2.13;;;13.60;61.60;;;;;;4973899;28;20039;-79
2022/03/19 09:46:43;;;;;;;7.18;2.28;;;13.70;58.40;;;;;;4957856;28;20050;-79
2022/03/19 09:49:12;;;;;;;5.65;2.00;;;13.60;57.80;;;;;;4973788;28;20474;-80
2022/03/19 09:51:54;;;;;;;3.97;1.80;;;13.70;55.40;;;;;;4945533;28;20478;-79
2022/03/19 09:54:28;;;;;;;6.32;1.85;;;13.60;54.20;;;;;;4970980;28;20118;-79
2022/03/19 09:56:54;;;;;;;8.20;1.98;;;13.60;53.10;;;;;;4970650;28;20506;-79
2022/03/19 09:59:23;;;;;;;5.93;2.00;;;13.60;54.10;;;;;;4973264;28;20047;-80
2022/03/19 10:01:52;;;;;;;10.45;2.58;;;13.60;55.60;;;;;;4987521;28;20158;-79
2022/03/19 10:04:37;;;;;;;6.82;1.98;;;14.00;55.50;;;;;;4958836;28;20046;-79
2022/03/19 10:10:00;;;;;;;8.00;2.30;;;14.60;52.70;;;;;;4989779;28;20100;-80
2022/03/19 10:12:37;;;;;;;7.32;1.98;;;14.70;52.90;;;;;;4989813;28;20046;-79
2022/03/19 10:15:11;;;;;;;8.50;2.70;;;15.10;55.60;;;;;;4967852;28;20039;-80
2022/03/19 10:18:03;;;;;;;7.20;1.73;;;15.40;53.90;;;;;;4988070;28;20043;-79
2022/03/19 10:20:35;;;;;;;4.68;1.60;;;15.80;50.90;;;;;;4973971;28;20058;-80
2022/03/19 10:23:30;;;;;;;4.60;1.90;;;15.80;48.10;;;;;;4987820;28;20042;-80
2022/03/19 10:26:03;;;;;;;5.70;1.75;;;15.40;50.40;;;;;;4957074;28;20043;-80
2022/03/19 10:28:40;;;;;;;7.90;2.20;;;15.20;51.10;;;;;;4973647;28;20404;-80
2022/03/19 10:31:28;;;;;;;4.93;1.90;;;15.40;49.40;;;;;;4989738;28;20051;-80
2022/03/19 10:33:56;;;;;;;5.47;2.03;;;15.20;48.80;;;;;;4989206;28;20105;-80
2022/03/19 10:36:30;;;;;;;4.57;1.95;;;15.00;49.10;;;;;;4989324;28;20480;-79
2022/03/19 10:38:59;;;;;;;5.93;1.83;;;15.00;49.50;;;;;;4975998;28;20066;-79
2022/03/19 10:41:25;;;;;;;7.60;2.28;;;15.10;50.40;;;;;;4970736;28;20071;-79
2022/03/19 10:43:51;;;;;;;6.10;2.10;;;15.20;50.70;;;;;;4970010;28;20047;-80
2022/03/19 10:46:18;;;;;;;5.40;2.15;;;15.50;50.80;;;;;;4954338;28;20559;-80
2022/03/19 10:48:58;;;;;;;6.40;2.17;;;15.70;49.50;;;;;;4970214;28;20425;-79
2022/03/19 10:51:32;;;;;;;5.63;2.10;;;15.80;49.60;;;;;;4970849;28;20494;-79
2022/03/19 10:54:06;;;;;;;10.15;2.58;;;15.80;50.30;;;;;;4987716;28;20038;-80
2022/03/19 10:56:35;;;;;;;6.55;1.88;;;16.10;50.10;;;;;;4956730;28;20046;-79
2022/03/19 10:59:04;;;;;;;6.55;1.90;;;16.30;48.40;;;;;;4956711;28;20042;-79
2022/03/19 11:01:35;;;;;;;5.20;1.48;;;16.40;47.80;;;;;;4958411;28;20138;-80
2022/03/19 11:04:05;;;;;;;5.57;1.25;;;16.40;43.80;;;;;;4990528;28;20386;-79
2022/03/19 11:06:39;;;;;;;8.13;2.13;;;16.20;44.40;;;;;;4961355;28;20047;-80
2022/03/19 11:09:14;;;;;;;6.40;1.48;;;16.10;44.70;;;;;;4958757;29;20068;-79
2022/03/19 11:12:09;;;;;;;4.65;1.10;;;15.90;46.40;;;;;;4959588;29;20043;-80
2022/03/19 11:15:05;;;;;;;8.32;1.73;;;16.10;43.70;;;;;;4963930;28;20039;-80
2022/03/19 11:17:32;;;;;;;7.25;1.52;;;16.10;44.70;;;;;;4956442;28;20551;-76
2022/03/19 11:20:04;;;;;;;4.55;1.50;;;16.20;46.20;;;;;;4973810;28;20078;-76
2022/03/19 11:22:41;;;;;;;3.80;1.58;;;16.60;46.70;;;;;;4959362;28;20051;-78
2022/03/19 11:25:26;;;;;;;5.85;2.00;;;16.90;46.30;;;;;;4954318;28;20054;-77
2022/03/19 11:27:58;;;;;;;4.97;1.38;;;17.00;42.90;;;;;;4956886;28;20046;-77
2022/03/19 11:30:34;;;;;;;7.00;1.60;;;16.90;44.30;;;;;;4975088;28;20117;-79
2022/03/19 11:33:19;;;;;;;5.13;1.73;;;17.10;44.10;;;;;;4976296;28;20043;-78
2022/03/19 11:35:55;;;;;;;3.45;1.30;;;17.20;43.90;;;;;;4963086;28;20055;-79
2022/03/19 11:38:24;;;;;;;6.35;1.65;;;17.10;43.90;;;;;;4959301;28;20047;-78
2022/03/19 11:40:55;;;;;;;6.05;1.90;;;17.20;44.50;;;;;;4938661;29;20039;-77
2022/03/19 11:43:27;;;;;;;5.78;1.50;;;17.20;43.80;;;;;;4938421;29;20039;-77
2022/03/19 11:45:57;;;;;;;3.92;1.30;;;17.00;42.30;;;;;;4952363;28;20101;-77
2022/03/19 11:48:39;;;;;;;4.25;1.30;;;16.90;42.60;;;;;;4971055;28;20073;-77
2022/03/19 11:51:33;;;;;;;6.13;1.55;;;16.80;41.10;;;;;;4954847;29;20487;-77
2022/03/19 11:54:17;;;;;;;4.65;1.20;;;16.70;41.20;;;;;;4968803;28;20054;-78
2022/03/19 11:56:42;;;;;;;2.42;1.40;;;16.70;40.50;;;;;;4970779;28;20047;-78
2022/03/19 11:59:23;;;;;;;2.53;1.30;;;16.50;40.60;;;;;;4954564;28;20133;-79
2022/03/19 12:01:54;;;;;;;4.63;1.45;;;16.50;41.50;;;;;;4954142;29;20118;-78
2022/03/19 12:04:39;;;;;;;5.18;1.13;;;16.80;42.00;;;;;;4958804;28;20038;-78
2022/03/19 12:07:05;;;;;;;5.68;1.30;;;17.20;41.60;;;;;;4964549;28;20039;-78
2022/03/19 12:09:39;;;;;;;3.35;1.10;;;17.50;41.40;;;;;;4970454;28;20069;-77
2022/03/19 12:12:26;;;;;;;4.80;1.50;;;17.50;40.80;;;;;;4958609;28;20039;-80
2022/03/19 12:14:56;;;;;;;4.88;1.33;;;17.20;40.00;;;;;;4970999;28;20055;-79
2022/03/19 12:17:30;;;;;;;4.78;1.40;;;17.10;41.60;;;;;;4945966;28;20046;-77
2022/03/19 12:20:01;;;;;;;4.57;1.45;;;17.50;43.30;;;;;;4972886;28;20046;-77
2022/03/19 12:22:28;;;;;;;4.60;1.48;;;17.60;42.70;;;;;;4989192;28;20548;-78
2022/03/19 12:25:13;;;;;;;6.43;1.50;;;17.50;41.30;;;;;;4972341;28;20170;-77
2022/03/19 12:27:40;;;;;;;4.10;1.60;;;17.20;41.40;;;;;;4946796;29;20066;-77
2022/03/19 12:30:09;;;;;;;3.38;1.20;;;17.20;41.20;;;;;;4948400;28;20051;-77
2022/03/19 12:32:54;;;;;;;3.22;1.13;;;17.20;42.20;;;;;;4953206;29;20043;-77
2022/03/19 12:35:23;;;;;;;2.53;0.95;;;17.20;40.80;;;;;;4973375;28;20057;-77
2022/03/19 12:37:53;;;;;;;2.05;1.00;;;17.20;39.50;;;;;;4966233;28;20504;-76
2022/03/19 12:40:23;;;;;;;4.88;1.58;;;17.20;39.60;;;;;;4956666;28;20043;-76
2022/03/19 12:42:51;;;;;;;4.50;1.30;;;17.20;40.30;;;;;;4971284;28;20046;-76
2022/03/19 12:45:20;;;;;;;2.85;1.33;;;17.30;41.20;;;;;;4969575;28;20079;-76
2022/03/19 12:47:51;;;;;;;3.08;1.40;;;17.50;41.20;;;;;;4969307;28;20123;-76
2022/03/19 12:50:19;;;;;;;3.75;1.50;;;17.30;39.60;;;;;;4953070;28;20043;-75
2022/03/19 12:52:46;;;;;;;4.40;1.35;;;17.10;40.80;;;;;;4969422;28;20039;-75
2022/03/19 12:55:20;;;;;;;3.53;1.20;;;16.80;41.30;;;;;;4974088;28;20043;-74
2022/03/19 12:57:59;;;;;;;4.38;1.42;;;17.00;41.30;;;;;;4937124;29;20051;-75
2022/03/19 13:00:26;;;;;;;2.65;1.13;;;17.10;42.20;;;;;;4955692;28;20070;-75
2022/03/19 13:02:55;;;;;;;2.00;1.00;;;17.20;41.50;;;;;;4982530;28;20109;-78
2022/03/19 13:05:24;;;;;;;3.35;1.30;;;17.20;41.10;;;;;;4974312;28;20478;-77
2022/03/19 13:08:06;;;;;;;2.80;1.30;;;17.20;41.50;;;;;;4971252;28;20047;-78
2022/03/19 13:10:46;;;;;;;3.22;1.48;;;17.50;41.60;;;;;;4977057;28;20130;-76
2022/03/19 13:13:13;;;;;;;4.78;1.50;;;17.80;40.60;;;;;;4955113;28;20070;-78